createdAt,value
2018-05-17T00:02:16.982Z,77.64
2018-05-17T00:04:45.274Z,76.88
2018-05-17T00:07:13.570Z,77.98
2018-05-17T00:09:41.865Z,77.52
2018-05-17T00:12:10.179Z,77.63
2018-05-17T00:14:38.469Z,78.50
2018-05-17T00:17:06.774Z,78.04
2018-05-17T00:19:35.057Z,78.99
2018-05-17T00:22:03.351Z,78.17
2018-05-17T00:24:31.651Z,77.91
2018-05-17T00:26:59.939Z,78.50
2018-05-17T00:29:28.224Z,77.95
2018-05-17T00:31:56.507Z,75.57
2018-05-17T00:34:24.807Z,75.58
2018-05-17T00:36:53.104Z,76.34
2018-05-17T00:39:21.413Z,75.74
2018-05-17T00:41:49.698Z,75.48
2018-05-17T00:44:17.994Z,75.34
2018-05-17T00:46:46.279Z,75.15
2018-05-17T00:49:14.562Z,75.32
2018-05-17T00:51:42.847Z,75.05
2018-05-17T00:54:11.194Z,75.16
2018-05-17T00:56:39.464Z,75.60
2018-05-17T00:59:07.759Z,75.73
2018-05-17T01:01:36.039Z,74.76
2018-05-17T01:04:04.338Z,75.39
2018-05-17T01:06:32.634Z,75.14
2018-05-17T01:09:00.930Z,76.11
2018-05-17T01:11:29.225Z,76.25
2018-05-17T01:13:57.516Z,77.65
2018-05-17T01:16:25.802Z,76.73
2018-05-17T01:18:54.086Z,77.77
2018-05-17T01:21:22.406Z,77.25
2018-05-17T01:23:50.697Z,77.04
2018-05-17T01:26:18.986Z,77.65
2018-05-17T01:28:47.271Z,77.53
2018-05-17T01:31:15.579Z,77.03
2018-05-17T01:33:43.870Z,76.29
2018-05-17T01:36:12.194Z,76.92
2018-05-17T01:38:40.466Z,76.27
2018-05-17T01:41:08.760Z,76.17
2018-05-17T01:43:37.044Z,77.03
2018-05-17T01:46:05.333Z,75.89
2018-05-17T01:48:33.618Z,75.55
2018-05-17T01:51:02.173Z,75.64
2018-05-17T01:53:30.458Z,76.27
2018-05-17T01:55:58.738Z,75.88
2018-05-17T01:58:27.038Z,75.48
2018-05-17T02:00:55.323Z,75.65
2018-05-17T02:03:23.618Z,75.47
2018-05-17T02:05:51.907Z,74.76
2018-05-17T02:08:20.205Z,75.24
2018-05-17T02:10:48.486Z,74.71
2018-05-17T02:13:16.784Z,73.78
2018-05-17T02:15:45.066Z,75.41
2018-05-17T02:18:13.375Z,75.16
2018-05-17T02:20:41.680Z,74.80
2018-05-17T02:23:09.975Z,74.60
2018-05-17T02:25:38.267Z,75.06
2018-05-17T02:28:06.570Z,75.83
2018-05-17T02:30:34.879Z,75.22
2018-05-17T02:33:03.170Z,74.84
2018-05-17T02:35:31.455Z,74.12
2018-05-17T02:37:59.770Z,74.37
2018-05-17T02:40:28.053Z,75.28
2018-05-17T02:42:56.342Z,73.77
2018-05-17T02:45:24.626Z,74.21
2018-05-17T02:47:52.921Z,74.79
2018-05-17T02:50:21.199Z,74.68
2018-05-17T02:52:49.474Z,74.34
2018-05-17T02:55:17.770Z,74.60
2018-05-17T02:57:46.042Z,74.29
2018-05-17T03:00:14.326Z,74.50
2018-05-17T03:02:42.604Z,74.43
2018-05-17T03:05:10.888Z,74.28
2018-05-17T03:07:39.162Z,74.57
2018-05-17T03:10:07.446Z,74.66
2018-05-17T03:12:35.737Z,74.49
2018-05-17T03:15:04.014Z,74.73
2018-05-17T03:17:32.302Z,74.78
2018-05-17T03:20:00.590Z,74.18
2018-05-17T03:22:28.871Z,74.44
2018-05-17T03:24:57.169Z,74.75
2018-05-17T03:27:25.450Z,73.99
2018-05-17T03:29:53.726Z,73.80
2018-05-17T03:32:22.034Z,74.11
2018-05-17T03:34:50.331Z,74.53
2018-05-17T03:37:18.626Z,74.16
2018-05-17T03:39:46.918Z,74.00
2018-05-17T03:42:15.214Z,73.86
2018-05-17T03:44:43.510Z,73.79
2018-05-17T03:47:11.830Z,74.49
2018-05-17T03:49:40.144Z,73.66
2018-05-17T03:52:08.450Z,73.29
2018-05-17T03:54:36.738Z,73.79
2018-05-17T03:57:05.042Z,73.71
2018-05-17T03:59:33.334Z,73.44
2018-05-17T04:05:14.412Z,73.43
2018-05-17T04:07:43.386Z,73.29
2018-05-17T04:10:11.670Z,73.37
2018-05-17T04:12:41.927Z,73.26
2018-05-17T04:15:10.226Z,73.53
2018-05-17T04:17:38.530Z,73.21
2018-05-17T04:20:06.854Z,73.87
2018-05-17T04:22:35.138Z,73.57
2018-05-17T04:25:03.429Z,73.37
2018-05-17T04:27:31.714Z,73.02
2018-05-17T04:30:00.007Z,73.40
2018-05-17T04:32:28.306Z,73.23
2018-05-17T04:34:56.593Z,72.49
2018-05-17T04:37:24.879Z,72.54
2018-05-17T04:39:53.172Z,72.14
2018-05-17T04:42:21.453Z,72.70
2018-05-17T04:44:49.750Z,72.70
2018-05-17T04:47:18.038Z,72.34
2018-05-17T04:49:46.338Z,72.62
2018-05-17T04:52:14.646Z,73.17
2018-05-17T04:54:42.978Z,73.05
2018-05-17T04:57:11.227Z,73.03
2018-05-17T04:59:39.511Z,71.99
2018-05-17T05:02:07.803Z,72.00
2018-05-17T05:04:36.085Z,71.22
2018-05-17T05:07:04.387Z,69.23
2018-05-17T05:09:32.705Z,69.27
2018-05-17T05:12:00.964Z,68.97
2018-05-17T05:14:29.252Z,69.86
2018-05-17T05:16:57.538Z,69.72
2018-05-17T05:19:25.823Z,70.04
2018-05-17T05:21:54.132Z,70.84
2018-05-17T05:24:22.422Z,73.76
2018-05-17T05:26:50.713Z,71.57
2018-05-17T05:29:18.998Z,72.34
2018-05-17T05:31:47.290Z,71.36
2018-05-17T05:34:15.574Z,71.53
2018-05-17T05:36:43.883Z,71.21
2018-05-17T05:39:12.178Z,70.86
2018-05-17T05:41:40.476Z,71.61
2018-05-17T05:44:08.785Z,71.12
2018-05-17T05:46:37.068Z,70.10
2018-05-17T05:49:05.370Z,70.26
2018-05-17T05:51:33.665Z,70.54
2018-05-17T05:54:02.010Z,70.43
2018-05-17T05:56:30.290Z,70.46
2018-05-17T05:58:58.590Z,70.31
2018-05-17T06:01:26.878Z,70.58
2018-05-17T06:03:55.178Z,68.78
2018-05-17T06:06:24.089Z,69.67
2018-05-17T06:08:52.382Z,69.68
2018-05-17T06:11:20.678Z,69.66
2018-05-17T06:13:48.969Z,69.16
2018-05-17T06:16:17.263Z,68.25
2018-05-17T06:18:45.568Z,69.71
2018-05-17T06:21:13.846Z,68.74
2018-05-17T06:23:42.163Z,68.07
2018-05-17T06:26:10.465Z,69.45
2018-05-17T06:28:38.762Z,68.62
2018-05-17T06:31:07.067Z,68.67
2018-05-17T06:33:35.337Z,68.46
2018-05-17T06:36:03.631Z,68.33
2018-05-17T06:38:31.922Z,68.00
2018-05-17T06:41:00.218Z,67.40
2018-05-17T06:43:28.508Z,68.12
2018-05-17T06:45:56.794Z,67.47
2018-05-17T06:48:25.082Z,67.89
2018-05-17T06:50:53.380Z,66.93
2018-05-17T06:53:21.663Z,66.36
2018-05-17T06:55:49.954Z,67.57
2018-05-17T06:58:18.250Z,66.17
2018-05-17T07:00:46.550Z,67.29
2018-05-17T07:03:14.830Z,65.72
2018-05-17T07:05:43.130Z,66.71
2018-05-17T07:08:11.421Z,65.90
2018-05-17T07:10:39.701Z,67.17
2018-05-17T07:13:08.195Z,66.19
2018-05-17T07:15:36.479Z,66.56
2018-05-17T07:18:04.868Z,65.79
2018-05-17T07:20:33.050Z,65.65
2018-05-17T07:23:01.346Z,66.09
2018-05-17T07:25:29.626Z,65.67
2018-05-17T07:27:57.994Z,64.24
2018-05-17T07:30:26.278Z,64.71
2018-05-17T07:32:54.630Z,63.61
2018-05-17T07:35:22.920Z,64.02
2018-05-17T07:37:52.129Z,63.71
2018-05-17T07:40:20.434Z,64.70
2018-05-17T07:42:48.726Z,63.52
2018-05-17T07:45:17.084Z,63.96
2018-05-17T07:47:45.362Z,63.50
2018-05-17T07:50:13.674Z,63.39
2018-05-17T07:52:41.992Z,62.68
2018-05-17T07:55:10.258Z,62.26
2018-05-17T07:57:38.534Z,61.86
2018-05-17T08:00:06.826Z,60.83
2018-05-17T08:02:35.113Z,61.11
2018-05-17T08:05:03.446Z,62.59
2018-05-17T08:07:31.730Z,61.12
2018-05-17T08:10:00.023Z,61.25
2018-05-17T08:12:28.304Z,60.23
2018-05-17T08:14:56.591Z,60.41
2018-05-17T08:17:24.872Z,60.02
2018-05-17T08:19:53.163Z,59.44
2018-05-17T08:22:21.444Z,60.46
2018-05-17T08:24:49.753Z,60.18
2018-05-17T08:27:18.042Z,60.68
2018-05-17T08:29:46.337Z,60.29
2018-05-17T08:32:14.614Z,59.73
2018-05-17T08:34:42.918Z,60.45
2018-05-17T08:37:11.209Z,60.49
2018-05-17T08:39:39.501Z,60.35
2018-05-17T08:42:07.790Z,60.15
2018-05-17T08:44:36.067Z,59.03
2018-05-17T08:47:04.366Z,58.83
2018-05-17T08:49:32.644Z,58.31
2018-05-17T08:52:00.938Z,57.16
2018-05-17T08:54:29.309Z,57.95
2018-05-17T08:56:57.505Z,57.36
2018-05-17T08:59:25.798Z,57.76
2018-05-17T09:01:54.118Z,56.63
2018-05-17T09:04:22.402Z,56.21
2018-05-17T09:06:50.745Z,54.89
2018-05-17T09:09:18.990Z,52.71
2018-05-17T09:11:47.283Z,54.09
2018-05-17T09:14:15.580Z,56.23
2018-05-17T09:16:43.866Z,52.31
2018-05-17T09:19:12.151Z,51.88
2018-05-17T09:21:40.470Z,53.53
2018-05-17T09:24:08.763Z,51.63
2018-05-17T09:26:37.046Z,51.85
2018-05-17T09:29:05.342Z,51.85
2018-05-17T09:31:33.623Z,51.33
2018-05-17T09:34:01.943Z,51.11
2018-05-17T09:36:30.224Z,51.83
2018-05-17T09:38:58.515Z,52.83
2018-05-17T09:41:26.844Z,53.91
2018-05-17T09:43:55.098Z,54.07
2018-05-17T09:46:23.385Z,52.18
2018-05-17T09:48:51.676Z,50.52
2018-05-17T09:51:19.965Z,50.43
2018-05-17T09:53:48.258Z,49.39
2018-05-17T09:56:16.544Z,49.58
2018-05-17T09:58:44.846Z,47.85
2018-05-17T10:01:13.130Z,48.78
2018-05-17T10:03:41.419Z,49.20
2018-05-17T10:06:09.710Z,48.46
2018-05-17T10:08:38.007Z,48.25
2018-05-17T10:11:06.286Z,49.13
2018-05-17T10:13:34.569Z,49.07
2018-05-17T10:16:02.858Z,49.58
2018-05-17T10:18:31.142Z,48.57
2018-05-17T10:20:59.425Z,49.29
2018-05-17T10:23:27.719Z,48.93
2018-05-17T10:25:56.006Z,48.91
2018-05-17T10:28:24.318Z,47.38
2018-05-17T10:30:52.638Z,48.05
2018-05-17T10:33:20.918Z,49.14
2018-05-17T10:35:49.209Z,47.54
2018-05-17T10:38:17.489Z,46.94
2018-05-17T10:40:45.867Z,47.09
2018-05-17T10:43:14.130Z,47.19
2018-05-17T10:45:42.429Z,48.28
2018-05-17T10:48:10.711Z,47.38
2018-05-17T10:50:39.005Z,46.16
2018-05-17T10:53:07.286Z,47.05
2018-05-17T10:55:35.606Z,46.79
2018-05-17T10:58:03.902Z,46.20
2018-05-17T11:00:32.189Z,45.73
2018-05-17T11:03:00.492Z,47.17
2018-05-17T11:05:28.770Z,46.30
2018-05-17T11:07:57.071Z,46.08
2018-05-17T11:10:25.361Z,46.17
2018-05-17T11:12:53.646Z,46.18
2018-05-17T11:15:21.955Z,45.62
2018-05-17T11:17:50.238Z,45.63
2018-05-17T11:20:18.523Z,45.91
2018-05-17T11:22:46.810Z,45.47
2018-05-17T11:25:15.086Z,46.09
2018-05-17T11:27:43.366Z,45.92
2018-05-17T11:30:11.661Z,46.90
2018-05-17T11:32:39.946Z,45.26
2018-05-17T11:35:08.218Z,44.03
2018-05-17T11:37:36.870Z,44.21
2018-05-17T11:40:05.113Z,44.69
2018-05-17T11:42:33.389Z,45.44
2018-05-17T11:45:01.730Z,45.12
2018-05-17T11:47:30.022Z,45.03
2018-05-17T11:49:58.321Z,43.69
2018-05-17T11:52:26.593Z,44.10
2018-05-17T11:54:54.906Z,43.88
2018-05-17T11:57:23.191Z,44.54
2018-05-17T11:59:51.482Z,43.68
2018-05-17T12:02:19.750Z,43.35
2018-05-17T12:04:48.057Z,44.88
2018-05-17T12:07:16.386Z,42.88
2018-05-17T12:09:44.627Z,42.51
2018-05-17T12:12:13.286Z,42.36
2018-05-17T12:14:41.534Z,43.27
2018-05-17T12:17:09.813Z,42.70
2018-05-17T12:19:38.203Z,43.25
2018-05-17T12:22:06.474Z,41.55
2018-05-17T12:24:34.792Z,40.38
2018-05-17T12:27:03.073Z,41.86
2018-05-17T12:29:31.366Z,41.15
2018-05-17T12:31:59.703Z,40.49
2018-05-17T12:34:27.946Z,40.34
2018-05-17T12:36:56.233Z,40.53
2018-05-17T12:39:24.513Z,41.51
2018-05-17T12:41:52.790Z,42.23
2018-05-17T12:44:21.092Z,40.82
2018-05-17T12:46:49.362Z,41.03
2018-05-17T12:49:17.655Z,41.77
2018-05-17T12:51:45.945Z,40.72
2018-05-17T12:54:14.231Z,37.93
2018-05-17T12:56:42.591Z,39.24
2018-05-17T12:59:10.809Z,39.53
2018-05-17T13:01:39.375Z,39.98
2018-05-17T13:04:07.652Z,39.38
2018-05-17T13:06:35.944Z,38.96
2018-05-17T13:09:04.928Z,39.86
2018-05-17T13:11:33.263Z,40.55
2018-05-17T13:14:01.584Z,39.91
2018-05-17T13:16:29.854Z,39.52
2018-05-17T13:18:58.141Z,38.78
2018-05-17T13:21:26.486Z,39.34
2018-05-17T13:23:54.784Z,39.02
2018-05-17T13:26:23.147Z,39.28
2018-05-17T13:28:51.442Z,39.24
2018-05-17T13:31:21.771Z,38.97
2018-05-17T13:33:50.286Z,39.15
2018-05-17T13:36:18.584Z,40.15
2018-05-17T13:38:46.882Z,38.88
2018-05-17T13:41:15.161Z,39.06
2018-05-17T13:43:43.601Z,37.03
2018-05-17T13:46:11.878Z,37.52
2018-05-17T13:48:40.166Z,38.47
2018-05-17T13:51:08.443Z,39.53
2018-05-17T13:53:36.745Z,37.99
2018-05-17T13:56:05.035Z,35.92
2018-05-17T13:58:33.322Z,37.63
2018-05-17T14:01:01.604Z,37.40
2018-05-17T14:03:29.887Z,37.74
2018-05-17T14:05:58.179Z,36.47
2018-05-17T14:08:26.471Z,36.81
2018-05-17T14:10:54.750Z,37.61
2018-05-17T14:13:23.041Z,35.84
2018-05-17T14:15:52.286Z,36.47
2018-05-17T14:18:20.570Z,36.16
2018-05-17T14:20:48.873Z,36.95
2018-05-17T14:23:17.151Z,37.31
2018-05-17T14:25:45.458Z,37.05
2018-05-17T14:28:13.747Z,36.69
2018-05-17T14:30:42.050Z,36.51
2018-05-17T14:33:10.326Z,35.86
2018-05-17T14:35:38.669Z,36.44
2018-05-17T14:38:06.946Z,36.93
2018-05-17T14:40:35.230Z,37.34
2018-05-17T14:43:03.506Z,36.97
2018-05-17T14:45:31.855Z,36.63
2018-05-17T14:48:00.150Z,37.38
2018-05-17T14:50:28.418Z,36.32
2018-05-17T14:52:56.710Z,36.94
2018-05-17T14:55:24.990Z,35.92
2018-05-17T14:57:53.286Z,36.72
2018-05-17T15:00:22.495Z,35.89
2018-05-17T15:02:50.851Z,35.61
2018-05-17T15:05:21.738Z,35.87
2018-05-17T15:07:50.022Z,36.26
2018-05-17T15:10:18.320Z,35.85
2018-05-17T15:12:46.603Z,36.48
2018-05-17T15:15:14.884Z,37.11
2018-05-17T15:17:43.176Z,35.65
2018-05-17T15:20:11.445Z,36.48
2018-05-17T15:22:39.754Z,37.46
2018-05-17T15:25:08.019Z,36.04
2018-05-17T15:27:37.034Z,36.21
2018-05-17T15:30:05.246Z,36.10
2018-05-17T15:32:33.525Z,36.95
2018-05-17T15:35:01.824Z,36.92
2018-05-17T15:37:30.138Z,36.93
2018-05-17T15:39:58.423Z,36.08
2018-05-17T15:42:26.698Z,36.38
2018-05-17T15:44:54.984Z,36.41
2018-05-17T15:47:23.258Z,37.35
2018-05-17T15:49:51.539Z,37.50
2018-05-17T15:52:19.836Z,36.31
2018-05-17T15:54:48.119Z,36.47
2018-05-17T15:57:16.395Z,37.33
2018-05-17T15:59:44.681Z,37.21
2018-05-17T16:02:13.155Z,36.82
2018-05-17T16:04:41.698Z,37.67
2018-05-17T16:07:09.975Z,38.13
2018-05-17T16:09:38.262Z,36.83
2018-05-17T16:12:06.537Z,36.69
2018-05-17T16:14:34.863Z,36.69
2018-05-17T16:17:03.110Z,36.93
2018-05-17T16:19:31.387Z,36.56
2018-05-17T16:22:00.653Z,36.52
2018-05-17T16:24:28.933Z,36.49
2018-05-17T16:26:57.213Z,36.86
2018-05-17T16:29:25.486Z,36.44
2018-05-17T16:31:53.782Z,35.75
2018-05-17T16:34:22.058Z,36.28
2018-05-17T16:36:50.348Z,36.76
2018-05-17T16:39:18.701Z,37.60
2018-05-17T16:41:46.983Z,37.19
2018-05-17T16:44:15.258Z,37.70
2018-05-17T16:46:43.542Z,38.07
2018-05-17T16:49:11.820Z,37.20
2018-05-17T16:51:40.113Z,36.73
2018-05-17T16:54:08.405Z,37.50
2018-05-17T16:56:36.687Z,38.08
2018-05-17T16:59:04.990Z,38.00
2018-05-17T17:01:33.370Z,37.47
2018-05-17T17:04:03.614Z,37.88
2018-05-17T17:06:31.960Z,39.19
2018-05-17T17:09:00.267Z,38.63
2018-05-17T17:11:28.563Z,37.99
2018-05-17T17:13:56.862Z,38.58
2018-05-17T17:16:25.188Z,38.15
2018-05-17T17:18:53.462Z,38.36
2018-05-17T17:21:21.760Z,38.28
2018-05-17T17:23:50.095Z,38.29
2018-05-17T17:26:18.345Z,39.06
2018-05-17T17:28:47.694Z,39.43
2018-05-17T17:31:15.975Z,39.71
2018-05-17T17:33:44.256Z,39.72
2018-05-17T17:36:12.533Z,40.24
2018-05-17T17:38:40.818Z,40.61
2018-05-17T17:41:09.099Z,40.70
2018-05-17T17:43:37.425Z,40.18
2018-05-17T17:46:05.715Z,40.55
2018-05-17T17:48:34.226Z,40.63
2018-05-17T17:51:02.518Z,41.11
2018-05-17T17:53:30.794Z,41.53
2018-05-17T17:55:59.078Z,42.23
2018-05-17T17:58:27.432Z,42.22
2018-05-17T18:00:55.647Z,42.55
2018-05-17T18:03:23.922Z,42.71
2018-05-17T18:05:52.212Z,43.23
2018-05-17T18:08:20.489Z,43.23
2018-05-17T18:10:48.782Z,43.69
2018-05-17T18:13:17.059Z,43.53
2018-05-17T18:15:45.338Z,43.86
2018-05-17T18:18:13.611Z,44.15
2018-05-17T18:20:41.894Z,44.70
2018-05-17T18:23:10.186Z,44.74
2018-05-17T18:25:38.481Z,44.82
2018-05-17T18:28:06.766Z,45.10
2018-05-17T18:30:35.053Z,45.40
2018-05-17T18:33:03.340Z,45.24
2018-05-17T18:35:31.617Z,45.42
2018-05-17T18:37:59.911Z,45.47
2018-05-17T18:40:29.045Z,45.95
2018-05-17T18:42:57.302Z,46.22
2018-05-17T18:45:25.578Z,46.15
2018-05-17T18:47:53.942Z,46.21
2018-05-17T18:50:23.070Z,46.20
2018-05-17T18:52:51.733Z,46.53
2018-05-17T18:55:22.916Z,46.78
2018-05-17T18:57:48.275Z,46.44
2018-05-17T19:00:16.662Z,46.37
2018-05-17T19:02:45.617Z,46.66
2018-05-17T19:05:14.065Z,46.88
2018-05-17T19:07:42.354Z,46.96
2018-05-17T19:10:10.654Z,47.00
2018-05-17T19:12:39.895Z,46.97
2018-05-17T19:15:08.164Z,46.77
2018-05-17T19:17:36.441Z,46.78
2018-05-17T19:20:04.727Z,46.67
2018-05-17T19:22:33.014Z,46.72
2018-05-17T19:25:03.443Z,46.53
2018-05-17T19:27:31.751Z,46.67
2018-05-17T19:30:00.038Z,46.70
2018-05-17T19:32:28.327Z,46.66
2018-05-17T19:34:56.721Z,46.92
2018-05-17T19:37:25.065Z,46.98
2018-05-17T19:39:53.302Z,47.08
2018-05-17T19:42:21.597Z,47.55
2018-05-17T19:44:49.901Z,47.92
2018-05-17T19:47:18.203Z,48.07
2018-05-17T19:49:46.483Z,48.01
2018-05-17T19:52:14.767Z,48.19
2018-05-17T19:54:43.060Z,48.51
2018-05-17T19:57:11.342Z,48.84
2018-05-17T19:59:39.628Z,49.07
2018-05-17T20:02:07.913Z,49.76
2018-05-17T20:04:36.193Z,50.00
2018-05-17T20:07:05.818Z,49.93
2018-05-17T20:09:34.094Z,50.13
2018-05-17T20:12:02.386Z,50.56
2018-05-17T20:14:30.662Z,50.80
2018-05-17T20:16:58.959Z,51.20
2018-05-17T20:19:27.246Z,51.31
2018-05-17T20:21:55.522Z,51.56
2018-05-17T20:24:23.808Z,51.81
2018-05-17T20:26:52.102Z,52.06
2018-05-17T20:29:20.493Z,52.16
2018-05-17T20:31:48.715Z,52.01
2018-05-17T20:34:16.985Z,52.53
2018-05-17T20:36:45.364Z,52.18
2018-05-17T20:39:14.482Z,52.17
2018-05-17T20:41:42.768Z,52.55
2018-05-17T20:44:11.043Z,52.63
2018-05-17T20:46:39.370Z,53.06
2018-05-17T20:49:07.654Z,53.05
2018-05-17T20:51:35.930Z,53.20
2018-05-17T20:54:04.224Z,53.60
2018-05-17T20:56:32.515Z,53.79
2018-05-17T20:59:00.843Z,53.99
2018-05-17T21:01:30.558Z,53.84
2018-05-17T21:03:58.853Z,54.14
2018-05-17T21:06:27.122Z,54.27
2018-05-17T21:08:55.435Z,54.58
2018-05-17T21:11:23.710Z,54.16
2018-05-17T21:13:51.995Z,54.78
2018-05-17T21:16:20.262Z,55.38
2018-05-17T21:18:48.576Z,55.41
2018-05-17T21:21:16.854Z,55.74
2018-05-17T21:23:49.558Z,55.63
2018-05-17T21:26:17.847Z,56.08
2018-05-17T21:28:46.445Z,56.20
2018-05-17T21:31:14.724Z,56.68
2018-05-17T21:33:43.027Z,56.48
2018-05-17T21:36:11.448Z,56.76
2018-05-17T21:38:39.702Z,56.98
2018-05-17T21:41:07.998Z,57.23
2018-05-17T21:43:36.270Z,57.57
2018-05-17T21:46:04.558Z,57.61
2018-05-17T21:48:32.846Z,57.91
2018-05-17T21:51:01.122Z,58.18
2018-05-17T21:53:29.409Z,59.02
2018-05-17T21:55:57.702Z,58.83
2018-05-17T21:58:31.768Z,58.51
2018-05-17T22:01:00.051Z,59.57
2018-05-17T22:03:28.334Z,60.17
2018-05-17T22:05:56.623Z,60.12
2018-05-17T22:08:24.893Z,58.92
2018-05-17T22:10:53.202Z,59.26
2018-05-17T22:13:21.486Z,59.42
2018-05-17T22:15:49.762Z,59.89
2018-05-17T22:18:18.034Z,59.24
2018-05-17T22:20:46.340Z,59.66
2018-05-17T22:23:14.616Z,59.62
2018-05-17T22:25:42.886Z,60.06
2018-05-17T22:28:11.181Z,60.35
2018-05-17T22:30:39.463Z,60.08
2018-05-17T22:33:07.751Z,60.52
2018-05-17T22:35:36.026Z,60.30
2018-05-17T22:38:04.310Z,59.96
2018-05-17T22:40:32.586Z,60.83
2018-05-17T22:43:00.880Z,60.44
2018-05-17T22:45:29.152Z,60.91
2018-05-17T22:47:57.446Z,60.71
2018-05-17T22:50:25.714Z,60.91
2018-05-17T22:52:54.002Z,60.67
2018-05-17T22:55:22.278Z,60.89
2018-05-17T22:58:02.539Z,61.17
2018-05-17T23:00:30.814Z,60.97
2018-05-17T23:02:59.099Z,61.05
2018-05-17T23:05:27.373Z,61.74
2018-05-17T23:07:55.659Z,61.59
2018-05-17T23:10:23.936Z,61.14
2018-05-17T23:12:52.219Z,61.65
2018-05-17T23:15:20.496Z,61.31
2018-05-17T23:17:48.789Z,61.63
2018-05-17T23:20:17.096Z,61.39
2018-05-17T23:22:45.354Z,61.74
2018-05-17T23:25:13.633Z,61.23
2018-05-17T23:27:41.918Z,60.99
2018-05-17T23:30:10.202Z,61.43
2018-05-17T23:32:38.486Z,62.41
2018-05-17T23:35:06.770Z,61.91
2018-05-17T23:37:35.059Z,61.75
2018-05-17T23:40:15.230Z,61.95
2018-05-17T23:42:43.528Z,61.82
2018-05-17T23:45:11.817Z,61.82
2018-05-17T23:47:40.090Z,62.50
2018-05-17T23:50:08.374Z,61.88
2018-05-17T23:52:36.650Z,62.43
2018-05-17T23:55:04.938Z,61.93
2018-05-17T23:57:33.213Z,62.44
